Portada
METAR-TAF:

METAR-TAF

Aeropuertos :

Aeropuerto de Rodez-Aveyron

Rodez, Francia

latitud: 44-24N, longitud: 002-29E, altitud: 581 m

Observación

El informe se hizo hace 42 minutos, a las 02:30 UTC
Viento 9 kt del este-sureste
Temperatura 8°C
Humedad 81%
Presión 1021 hPa
Visibilidad 10 km o más
Escasas nubes a una altura de 2500 ft

METAR: LFCR 240230Z AUTO 11009KT 9999 FEW025 08/05 Q1021 NOSIG

Hora: 04:12 (03:12 UTC)

Pronóstico

El informe se hizo hace 4 horas y 12 minutos, a las 23:00 UTC
Pronóstico válido del 24 a las 00 UTC al 24 a las 24 UTC
Viento 15 kt del sureste con ráfagas de 25 kt
Visibilidad 10 km o más
Cielo nuboso a una altura de 2500 ft
Evolucionando progresivamente
del 24 a las 01 UTC al 24 a las 03 UTC
Viento 10 kt del sureste
Probabilidad 40%
del 24 a las 08 UTC al 24 a las 11 UTC
Cielo nuboso a una altura de 1300 ft

TAF: LFCR 232300Z 2400/2424 13015G25KT 9999 BKN025 BECMG 2401/2403 13010KT PROB40 2408/2411 BKN013

Observaciones y pronósticos meteorológicos de más de 4000 aeropuertos (mensajes METAR y TAF).

Los puntos amarillos y rojos representan las estaciones disponibles.

Ponga el ratón en el punto deseado para ver el nombre de la estación.

Haga clic para ver las observaciones y los pronósticos meteorológicos.

Para cambiar el mapa : haga clic en los botones verdes con una cruz de color negro para hacer un zoom, en el botón verde con un guión para alejar o en las flechas verdes para mapas adyacentes.


METAR-TAF: